Terminal Aerodrome Forecast
Issued by NWS Knoxville/Tri Cities, TN

Home | Current Version | Previous Version | Text Only | Print | Product List | Glossary On
Versions: 1 2 3 4 5 6 7 8 9 10 11 12 13 14 15 16 17 18 19 20 21 22 23 24 25 26 27 28 29 30 31 32 33 34 35 36 37 38 39 40 41 42 43 44 45 46 47 48
000
FTUS44 KMRX 210538
TAFTRI
TAF
KTRI 210538Z 2106/2206 00000KT 5SM BR BKN004
     FM210800 00000KT 2SM BR BKN003
     FM210900 00000KT 1SM BR OVC002
      TEMPO 2109/2112 1/2SM FG VV001
     FM211230 00000KT 3SM BR BKN004
     FM211500 30005KT P6SM VCTS BKN035CB
     FM220200 VRB02KT P6SM SCT050 BKN150=

USA.gov is the U.S. government's official web portal to all federal, state and local government web resources and services.